Terminal Aerodrome Forecast
Issued by NWS Raleigh/Durham, NC

Home | Current Version | Previous Version | Text Only | Print | Product List | Glossary On
Versions: 1 2 3 4 5 6 7 8 9 10 11 12 13 14 15 16 17 18 19 20 21 22 23 24 25 26 27 28 29 30 31 32 33 34 35 36 37 38 39 40 41 42 43 44 45 46 47 48 49 50
000
FTUS42 KRAH 250522 CCA
TAFRDU
TAF COR
KRDU 250522Z 2506/2606 20009KT P6SM SCT200
     FM250900 20009KT P6SM BKN050
     FM251200 21008KT P6SM BKN008
     FM251400 22011KT P6SM BKN020
     FM252000 23011KT P6SM SHRA BKN050
     FM260000 25005KT P6SM -RA OVC050=

USA.gov is the U.S. government's official web portal to all federal, state and local government web resources and services.